createdAt,value
2022-11-13T00:01:52.335Z,14.30
2022-11-13T00:04:19.405Z,14.90
2022-11-13T00:06:46.538Z,14.59
2022-11-13T00:09:13.724Z,14.88
2022-11-13T00:11:40.845Z,14.97
2022-11-13T00:14:07.922Z,17.06
2022-11-13T00:16:35.243Z,15.05
2022-11-13T00:19:03.804Z,14.53
2022-11-13T00:21:30.843Z,14.21
2022-11-13T00:23:57.922Z,15.21
2022-11-13T00:26:27.603Z,15.10
2022-11-13T00:28:55.805Z,14.06
2022-11-13T00:31:23.167Z,14.23
2022-11-13T00:34:25.809Z,14.96
2022-11-13T00:36:39.644Z,14.62
2022-11-13T00:39:06.743Z,15.31
2022-11-13T00:41:33.817Z,15.39
2022-11-13T00:44:00.865Z,15.10
2022-11-13T00:46:27.906Z,15.47
2022-11-13T00:48:54.982Z,14.81
2022-11-13T00:51:22.158Z,15.78
2022-11-13T00:53:50.745Z,15.90
2022-11-13T00:56:17.803Z,15.80
2022-11-13T00:58:44.927Z,17.16
2022-11-13T01:01:14.435Z,16.12
2022-11-13T01:03:41.722Z,16.01
2022-11-13T01:06:14.523Z,15.87
2022-11-13T01:08:42.110Z,15.33
2022-11-13T01:11:14.404Z,15.08
2022-11-13T01:13:43.822Z,15.35
2022-11-13T01:16:13.242Z,15.52
2022-11-13T01:18:41.368Z,15.27
2022-11-13T01:21:11.502Z,15.61
2022-11-13T01:23:39.401Z,15.65
2022-11-13T01:26:08.922Z,15.24
2022-11-13T01:28:37.984Z,15.60
2022-11-13T01:31:07.161Z,15.20
2022-11-13T01:33:34.463Z,15.52
2022-11-13T01:36:02.365Z,15.15
2022-11-13T01:38:31.929Z,15.79
2022-11-13T01:41:02.948Z,15.28
2022-11-13T01:43:32.784Z,15.03
2022-11-13T01:46:15.981Z,15.58
2022-11-13T01:48:46.895Z,15.36
2022-11-13T01:51:21.141Z,15.65
2022-11-13T01:53:48.727Z,15.51
2022-11-13T01:56:17.402Z,14.99
2022-11-13T01:58:51.263Z,15.23
2022-11-13T02:01:19.921Z,14.32
2022-11-13T02:03:46.982Z,15.70
2022-11-13T02:06:15.002Z,15.76
2022-11-13T02:08:44.622Z,15.93
2022-11-13T02:11:12.231Z,15.77
2022-11-13T02:13:40.270Z,15.64
2022-11-13T02:16:09.663Z,15.05
2022-11-13T02:18:41.350Z,15.54
2022-11-13T02:21:25.993Z,15.57
2022-11-13T02:24:03.787Z,16.26
2022-11-13T02:26:34.004Z,16.32
2022-11-13T02:29:01.103Z,15.91
2022-11-13T02:31:28.181Z,15.52
2022-11-13T02:33:55.342Z,15.61
2022-11-13T02:36:25.942Z,15.42
2022-11-13T02:38:56.642Z,15.77
2022-11-13T02:41:23.682Z,15.56
2022-11-13T02:43:52.223Z,15.58
2022-11-13T02:46:19.321Z,15.88
2022-11-13T02:48:46.383Z,15.68
2022-11-13T02:51:13.423Z,16.03
2022-11-13T02:53:40.722Z,15.29
2022-11-13T02:56:08.424Z,15.74
2022-11-13T02:58:35.504Z,15.95
2022-11-13T03:01:04.682Z,15.74
2022-11-13T03:03:56.555Z,15.63
2022-11-13T03:06:18.821Z,15.39
2022-11-13T03:08:45.913Z,15.04
2022-11-13T03:11:13.223Z,15.05
2022-11-13T03:13:40.362Z,14.50
2022-11-13T03:16:14.346Z,14.24
2022-11-13T03:18:42.006Z,14.57
2022-11-13T03:21:12.521Z,14.27
2022-11-13T03:23:41.643Z,13.71
2022-11-13T03:26:11.208Z,13.90
2022-11-13T03:28:38.484Z,14.24
2022-11-13T03:31:06.222Z,14.86
2022-11-13T03:33:34.781Z,15.40
2022-11-13T03:36:02.403Z,14.86
2022-11-13T03:38:30.155Z,15.41
2022-11-13T03:40:57.523Z,15.44
2022-11-13T03:43:24.604Z,15.33
2022-11-13T03:45:51.784Z,14.98
2022-11-13T03:48:18.864Z,14.84
2022-11-13T03:50:50.619Z,14.48
2022-11-13T03:53:18.120Z,14.31
2022-11-13T03:55:45.179Z,14.64
2022-11-13T03:58:12.260Z,11.16
2022-11-13T04:00:41.779Z,7.69
2022-11-13T04:03:08.881Z,11.24
2022-11-13T04:05:35.999Z,11.76
2022-11-13T04:08:05.039Z,9.97
2022-11-13T04:10:32.280Z,9.85
2022-11-13T04:12:59.447Z,10.42
2022-11-13T04:15:26.909Z,9.59
2022-11-13T04:17:54.023Z,10.87
2022-11-13T04:20:21.220Z,9.31
2022-11-13T04:22:48.303Z,9.02
2022-11-13T04:25:17.083Z,8.76
2022-11-13T04:27:44.107Z,8.78
2022-11-13T04:30:12.203Z,8.54
2022-11-13T04:32:39.263Z,8.71
2022-11-13T04:35:08.163Z,8.83
2022-11-13T04:37:35.225Z,8.81
2022-11-13T04:40:02.385Z,8.79
2022-11-13T04:42:30.927Z,9.02
2022-11-13T04:44:57.964Z,8.74
2022-11-13T04:47:25.047Z,8.53
2022-11-13T04:49:52.061Z,8.41
2022-11-13T04:52:19.401Z,8.63
2022-11-13T04:54:46.406Z,8.24
2022-11-13T04:57:13.486Z,8.69
2022-11-13T04:59:41.983Z,9.12
2022-11-13T05:02:09.070Z,8.86
2022-11-13T05:04:36.117Z,8.59
2022-11-13T05:07:03.221Z,8.38
2022-11-13T05:09:30.299Z,8.78
2022-11-13T05:11:57.359Z,8.60
2022-11-13T05:14:24.439Z,8.31
2022-11-13T05:16:52.941Z,7.93
2022-11-13T05:19:20.163Z,8.55
2022-11-13T05:21:47.216Z,8.52
2022-11-13T05:24:14.380Z,8.40
2022-11-13T05:26:41.428Z,8.88
2022-11-13T05:29:08.502Z,8.64
2022-11-13T05:31:36.163Z,8.67
2022-11-13T05:34:06.323Z,9.07
2022-11-13T05:36:34.023Z,9.19
2022-11-13T05:39:01.586Z,8.76
2022-11-13T05:41:28.945Z,8.80
2022-11-13T05:43:59.375Z,8.72
2022-11-13T05:46:29.692Z,8.14
2022-11-13T05:48:59.704Z,7.99
2022-11-13T05:51:30.525Z,8.60
2022-11-13T05:53:58.358Z,8.23
2022-11-13T05:56:27.582Z,8.32
2022-11-13T05:58:55.980Z,8.41
2022-11-13T06:01:25.345Z,8.50
2022-11-13T06:03:53.086Z,8.75
2022-11-13T06:06:23.069Z,8.79
2022-11-13T06:08:53.244Z,8.59
2022-11-13T06:11:22.584Z,8.30
2022-11-13T06:13:50.925Z,8.56
2022-11-13T06:16:19.700Z,8.59
2022-11-13T06:18:48.406Z,8.56
2022-11-13T06:21:19.063Z,8.21
2022-11-13T06:23:46.852Z,8.21
2022-11-13T06:26:18.189Z,8.55
2022-11-13T06:28:46.347Z,8.47
2022-11-13T06:31:15.985Z,8.54
2022-11-13T06:33:43.845Z,8.27
2022-11-13T06:36:14.670Z,8.67
2022-11-13T06:38:42.694Z,8.60
2022-11-13T06:41:12.287Z,8.37
2022-11-13T06:43:41.244Z,7.86
2022-11-13T06:46:11.875Z,7.81
2022-11-13T06:48:39.521Z,7.70
2022-11-13T06:51:11.999Z,7.71
2022-11-13T06:53:39.051Z,8.70
2022-11-13T06:56:07.900Z,8.09
2022-11-13T06:58:35.001Z,8.69
2022-11-13T07:01:08.399Z,8.09
2022-11-13T07:03:36.270Z,8.79
2022-11-13T07:06:05.492Z,8.86
2022-11-13T07:08:33.380Z,8.44
2022-11-13T07:11:00.487Z,8.15
2022-11-13T07:13:29.003Z,8.30
2022-11-13T07:16:05.987Z,8.74
2022-11-13T07:18:45.075Z,8.36
2022-11-13T07:21:13.287Z,8.82
2022-11-13T07:23:40.445Z,8.19
2022-11-13T07:26:07.484Z,8.24
2022-11-13T07:28:34.544Z,8.43
2022-11-13T07:31:02.088Z,8.23
2022-11-13T07:33:29.367Z,8.21
2022-11-13T07:35:58.567Z,8.25
2022-11-13T07:38:25.876Z,8.09
2022-11-13T07:40:53.633Z,8.05
2022-11-13T07:43:20.993Z,8.07
2022-11-13T07:45:48.057Z,8.33
2022-11-13T07:48:15.058Z,7.87
2022-11-13T07:50:42.097Z,8.18
2022-11-13T07:53:10.578Z,8.01
2022-11-13T07:55:37.759Z,8.51
2022-11-13T07:58:06.337Z,8.24
2022-11-13T08:00:35.459Z,7.87
2022-11-13T08:03:07.077Z,7.71
2022-11-13T08:05:34.159Z,8.22
2022-11-13T08:08:01.239Z,8.12
2022-11-13T08:10:29.876Z,8.35
2022-11-13T08:13:01.960Z,7.96
2022-11-13T08:15:30.127Z,7.97
2022-11-13T08:17:58.926Z,8.41
2022-11-13T08:20:27.886Z,8.31
2022-11-13T08:22:57.347Z,8.29
2022-11-13T08:25:24.670Z,8.35
2022-11-13T08:27:54.790Z,7.94
2022-11-13T08:30:23.472Z,8.53
2022-11-13T08:32:51.443Z,7.90
2022-11-13T08:35:19.969Z,6.85
2022-11-13T08:37:48.506Z,7.06
2022-11-13T08:40:15.908Z,7.38
2022-11-13T08:42:42.927Z,7.85
2022-11-13T08:45:12.427Z,7.87
2022-11-13T08:47:39.487Z,7.91
2022-11-13T08:50:07.888Z,8.08
2022-11-13T08:52:35.007Z,8.40
2022-11-13T08:55:02.050Z,8.15
2022-11-13T08:57:29.097Z,8.05
2022-11-13T08:59:56.195Z,8.12
2022-11-13T09:02:24.885Z,8.03
2022-11-13T09:04:51.929Z,7.70
2022-11-13T09:07:22.142Z,7.67
2022-11-13T09:09:53.210Z,7.41
2022-11-13T09:12:20.311Z,7.86
2022-11-13T09:14:47.590Z,8.11
2022-11-13T09:17:14.884Z,8.16
2022-11-13T09:19:43.523Z,8.07
2022-11-13T09:22:11.328Z,7.91
2022-11-13T09:24:38.453Z,7.82
2022-11-13T09:27:05.629Z,7.69
2022-11-13T09:29:32.746Z,8.04
2022-11-13T09:32:00.034Z,7.79
2022-11-13T09:34:27.489Z,8.27
2022-11-13T09:36:56.104Z,7.97
2022-11-13T09:39:23.347Z,7.61
2022-11-13T09:41:55.587Z,7.83
2022-11-13T09:44:32.067Z,7.76
2022-11-13T09:47:08.520Z,7.88
2022-11-13T09:49:42.946Z,8.43
2022-11-13T09:52:17.269Z,8.09
2022-11-13T09:54:44.424Z,7.91
2022-11-13T09:57:26.711Z,7.96
2022-11-13T10:00:00.710Z,8.58
2022-11-13T10:02:42.347Z,9.03
2022-11-13T10:05:21.031Z,9.61
2022-11-13T10:07:59.874Z,8.90
2022-11-13T10:10:50.568Z,8.81
2022-11-13T10:13:28.072Z,9.58
2022-11-13T10:16:04.740Z,10.33
2022-11-13T10:18:37.933Z,11.24
2022-11-13T10:21:15.002Z,10.45
2022-11-13T10:23:51.855Z,10.15
2022-11-13T10:26:21.742Z,10.64
2022-11-13T10:29:00.700Z,9.72
2022-11-13T10:31:27.932Z,9.99
2022-11-13T10:33:57.392Z,11.68
2022-11-13T10:36:37.274Z,11.92
2022-11-13T10:39:08.835Z,10.35
2022-11-13T10:41:46.333Z,9.27
2022-11-13T10:44:27.175Z,9.86
2022-11-13T10:47:05.496Z,10.21
2022-11-13T10:49:33.153Z,10.39
2022-11-13T10:52:00.918Z,9.75
2022-11-13T10:54:31.655Z,8.76
2022-11-13T10:57:00.812Z,9.19
2022-11-13T10:59:39.173Z,9.51
2022-11-13T11:02:17.939Z,9.38
2022-11-13T11:04:45.053Z,8.78
2022-11-13T11:07:20.924Z,9.05
2022-11-13T11:09:51.668Z,9.14
2022-11-13T11:12:24.301Z,9.01
2022-11-13T11:15:20.132Z,10.00
2022-11-13T11:17:52.501Z,9.74
2022-11-13T11:20:28.773Z,10.38
2022-11-13T11:23:02.378Z,10.26
2022-11-13T11:25:39.031Z,10.70
2022-11-13T11:28:17.713Z,10.43
2022-11-13T11:30:51.412Z,9.63
2022-11-13T11:33:29.193Z,9.98
2022-11-13T11:36:04.465Z,9.37
2022-11-13T11:38:40.353Z,9.78
2022-11-13T11:41:16.780Z,9.56
2022-11-13T11:43:48.715Z,9.91
2022-11-13T11:46:22.997Z,9.28
2022-11-13T11:48:51.304Z,9.04
2022-11-13T11:51:26.273Z,9.41
2022-11-13T11:54:06.272Z,9.59
2022-11-13T11:56:39.637Z,9.85
2022-11-13T11:59:29.053Z,9.11
2022-11-13T12:02:33.975Z,8.88
2022-11-13T12:05:20.149Z,9.08
2022-11-13T12:08:03.118Z,9.11
2022-11-13T12:10:40.833Z,8.66
2022-11-13T12:13:26.999Z,9.31
2022-11-13T12:16:03.738Z,9.11
2022-11-13T12:18:43.253Z,8.84
2022-11-13T12:21:22.504Z,9.87
2022-11-13T12:24:20.213Z,9.19
2022-11-13T12:26:55.774Z,9.29
2022-11-13T12:29:40.997Z,9.40
2022-11-13T12:32:22.406Z,9.35
2022-11-13T12:34:54.315Z,9.76
2022-11-13T12:37:34.273Z,9.93
2022-11-13T12:40:08.933Z,9.73
2022-11-13T12:42:44.513Z,9.52
2022-11-13T12:45:21.893Z,9.91
2022-11-13T12:47:48.932Z,9.27
2022-11-13T12:50:31.704Z,8.76
2022-11-13T12:53:02.540Z,9.54
2022-11-13T12:55:32.554Z,9.89
2022-11-13T12:58:09.864Z,10.19
2022-11-13T13:00:41.421Z,10.12
2022-11-13T13:03:26.593Z,11.27
2022-11-13T13:06:17.314Z,10.63
2022-11-13T13:09:02.873Z,10.42
2022-11-13T13:11:43.818Z,11.23
2022-11-13T13:14:53.514Z,12.74
2022-11-13T13:17:24.301Z,10.53
2022-11-13T13:19:59.314Z,8.98
2022-11-13T13:22:29.413Z,10.07
2022-11-13T13:25:02.377Z,10.22
2022-11-13T13:27:34.013Z,9.35
2022-11-13T13:30:11.975Z,9.76
2022-11-13T13:32:55.600Z,9.49
2022-11-13T13:35:29.813Z,9.38
2022-11-13T13:38:05.176Z,9.57
2022-11-13T13:40:41.654Z,9.47
2022-11-13T13:43:36.172Z,9.78
2022-11-13T13:46:14.053Z,12.82
2022-11-13T13:48:46.633Z,13.20
2022-11-13T13:51:25.312Z,13.04
2022-11-13T13:53:55.293Z,13.25
2022-11-13T13:56:24.082Z,13.16
2022-11-13T13:58:52.731Z,12.83
2022-11-13T14:01:29.016Z,12.72
2022-11-13T14:04:13.992Z,13.22
2022-11-13T14:06:49.347Z,13.41
2022-11-13T14:09:19.892Z,13.39
2022-11-13T14:11:47.453Z,12.97
2022-11-13T14:14:20.295Z,13.02
2022-11-13T14:16:48.905Z,13.26
2022-11-13T14:19:18.200Z,8.85
2022-11-13T14:21:48.613Z,12.70
2022-11-13T14:24:23.074Z,12.75
2022-11-13T14:26:54.392Z,13.61
2022-11-13T14:29:37.751Z,13.02
2022-11-13T14:32:10.393Z,13.33
2022-11-13T14:34:44.492Z,13.28
2022-11-13T14:37:27.075Z,13.67
2022-11-13T14:39:58.453Z,13.49
2022-11-13T14:42:30.996Z,13.85
2022-11-13T14:45:17.456Z,14.07
2022-11-13T14:47:59.154Z,13.21
2022-11-13T14:50:29.793Z,13.09
2022-11-13T14:52:59.893Z,10.95
2022-11-13T14:55:29.674Z,7.59
2022-11-13T14:57:57.074Z,8.43
2022-11-13T15:00:30.773Z,9.33
2022-11-13T15:02:58.423Z,8.99
2022-11-13T15:05:27.334Z,11.22
2022-11-13T15:07:55.939Z,12.93
2022-11-13T15:10:26.955Z,13.54
2022-11-13T15:12:54.115Z,13.46
2022-11-13T15:15:25.095Z,13.03
2022-11-13T15:17:52.953Z,13.62
2022-11-13T15:20:25.394Z,14.20
2022-11-13T15:22:55.654Z,14.16
2022-11-13T15:25:24.573Z,14.22
2022-11-13T15:27:51.893Z,13.91
2022-11-13T15:30:19.553Z,13.91
2022-11-13T15:32:47.514Z,14.62
2022-11-13T15:35:18.275Z,13.81
2022-11-13T15:37:45.415Z,13.97
2022-11-13T15:40:15.494Z,14.06
2022-11-13T15:42:42.916Z,13.83
2022-11-13T15:45:14.655Z,13.14
2022-11-13T15:47:42.359Z,13.87
2022-11-13T15:50:13.916Z,13.66
2022-11-13T15:52:46.755Z,14.11
2022-11-13T15:55:21.381Z,14.79
2022-11-13T15:57:49.436Z,15.17
2022-11-13T16:00:19.433Z,15.04
2022-11-13T16:02:46.473Z,14.43
2022-11-13T16:05:13.593Z,14.68
2022-11-13T16:07:42.308Z,14.96
2022-11-13T16:10:10.856Z,15.38
2022-11-13T16:12:39.374Z,15.31
2022-11-13T16:15:07.920Z,14.30
2022-11-13T16:17:42.674Z,14.13
2022-11-13T16:20:12.835Z,14.24
2022-11-13T16:22:39.873Z,14.53
2022-11-13T16:25:10.035Z,14.73
2022-11-13T16:27:39.614Z,14.85
2022-11-13T16:30:14.300Z,15.41
2022-11-13T16:32:41.515Z,15.51
2022-11-13T16:35:12.972Z,14.70
2022-11-13T16:37:40.153Z,15.14
2022-11-13T16:40:19.793Z,15.29
2022-11-13T16:42:48.912Z,15.49
2022-11-13T16:45:17.032Z,16.01
2022-11-13T16:47:45.792Z,16.13
2022-11-13T16:50:16.034Z,15.37
2022-11-13T16:52:43.156Z,15.12
2022-11-13T16:55:10.453Z,15.07
2022-11-13T16:57:37.974Z,15.88
2022-11-13T17:00:11.394Z,16.24
2022-11-13T17:02:38.856Z,17.20
2022-11-13T17:05:06.554Z,17.70
2022-11-13T17:07:33.669Z,17.28
2022-11-13T17:10:29.008Z,17.30
2022-11-13T17:12:51.273Z,17.64
2022-11-13T17:15:21.313Z,17.77
2022-11-13T17:17:48.512Z,18.10
2022-11-13T17:20:16.179Z,18.34
2022-11-13T17:22:43.572Z,18.76
2022-11-13T17:25:10.654Z,19.67
2022-11-13T17:27:37.895Z,19.21
2022-11-13T17:30:07.077Z,19.97
2022-11-13T17:32:35.593Z,20.46
2022-11-13T17:35:02.693Z,20.52
2022-11-13T17:37:29.773Z,19.58
2022-11-13T17:39:56.794Z,19.37
2022-11-13T17:42:24.153Z,19.36
2022-11-13T17:44:51.241Z,19.09
2022-11-13T17:47:18.313Z,19.70
2022-11-13T17:49:46.835Z,18.68
2022-11-13T17:52:13.934Z,18.88
2022-11-13T17:54:41.041Z,19.75
2022-11-13T17:57:08.133Z,19.78
2022-11-13T17:59:35.213Z,18.72
2022-11-13T18:02:02.348Z,18.58
2022-11-13T18:04:29.437Z,18.80
2022-11-13T18:06:58.145Z,18.60
2022-11-13T18:09:25.280Z,18.24
2022-11-13T18:11:52.638Z,17.62
2022-11-13T18:14:19.753Z,17.47
2022-11-13T18:16:46.876Z,18.63
2022-11-13T18:19:14.103Z,19.02
2022-11-13T18:21:41.965Z,19.45
2022-11-13T18:24:15.858Z,21.96
2022-11-13T18:26:43.234Z,19.94
2022-11-13T18:29:10.780Z,19.91
2022-11-13T18:31:38.453Z,19.95
2022-11-13T18:34:07.194Z,19.04
2022-11-13T18:36:34.760Z,18.58
2022-11-13T18:39:03.073Z,18.40
2022-11-13T18:41:31.999Z,18.24
2022-11-13T18:43:59.295Z,16.99
2022-11-13T18:46:26.996Z,17.63
2022-11-13T18:48:55.953Z,16.48
2022-11-13T18:51:25.274Z,16.51
2022-11-13T18:53:52.872Z,16.58
2022-11-13T18:56:22.914Z,16.52
2022-11-13T18:58:53.854Z,16.94
2022-11-13T19:01:24.678Z,17.37
2022-11-13T19:04:22.451Z,17.03
2022-11-13T19:06:40.804Z,16.56
2022-11-13T19:09:12.234Z,16.97
2022-11-13T19:11:39.573Z,17.65
2022-11-13T19:14:09.194Z,17.84
2022-11-13T19:16:38.254Z,17.62
2022-11-13T19:19:10.614Z,17.21
2022-11-13T19:21:37.672Z,16.65
2022-11-13T19:24:05.199Z,14.25
2022-11-13T19:26:32.472Z,10.07
2022-11-13T19:28:59.607Z,10.99
2022-11-13T19:31:28.527Z,11.66
2022-11-13T19:33:56.546Z,12.51
2022-11-13T19:36:24.785Z,12.31
2022-11-13T19:38:52.923Z,12.47
2022-11-13T19:41:20.749Z,14.01
2022-11-13T19:43:48.329Z,14.79
2022-11-13T19:46:17.668Z,15.05
2022-11-13T19:48:47.869Z,15.39
2022-11-13T19:51:16.950Z,15.82
2022-11-13T19:53:44.799Z,15.60
2022-11-13T19:56:14.009Z,15.31
2022-11-13T19:58:41.647Z,16.02
2022-11-13T20:01:09.934Z,16.15
2022-11-13T20:03:37.127Z,16.54
2022-11-13T20:06:07.410Z,16.94
2022-11-13T20:08:35.935Z,16.63
2022-11-13T20:11:03.268Z,15.86
2022-11-13T20:13:32.093Z,16.67
2022-11-13T20:15:59.308Z,15.97
2022-11-13T20:18:26.578Z,17.10
2022-11-13T20:20:55.047Z,16.59
2022-11-13T20:23:24.109Z,16.61
2022-11-13T20:25:53.468Z,16.31
2022-11-13T20:28:20.887Z,16.47
2022-11-13T20:30:48.588Z,16.68
2022-11-13T20:33:21.247Z,15.85
2022-11-13T20:35:53.708Z,15.90
2022-11-13T20:38:20.871Z,16.02
2022-11-13T20:40:49.404Z,15.89
2022-11-13T20:43:16.448Z,16.38
2022-11-13T20:45:43.590Z,16.65
2022-11-13T20:48:10.717Z,16.47
2022-11-13T20:50:37.807Z,16.64
2022-11-13T20:53:06.128Z,16.77
2022-11-13T20:55:33.348Z,16.36
2022-11-13T20:58:02.092Z,16.06
2022-11-13T21:00:29.349Z,16.74
2022-11-13T21:02:56.430Z,16.77
2022-11-13T21:05:23.629Z,16.73
2022-11-13T21:07:50.750Z,16.58
2022-11-13T21:10:17.927Z,16.75
2022-11-13T21:12:44.966Z,16.40
2022-11-13T21:15:13.527Z,17.36
2022-11-13T21:17:40.608Z,17.55
2022-11-13T21:20:09.367Z,17.37
2022-11-13T21:22:36.466Z,16.97
2022-11-13T21:25:04.069Z,16.74
2022-11-13T21:27:31.128Z,17.50
2022-11-13T21:29:58.388Z,17.33
2022-11-13T21:32:26.868Z,18.41
2022-11-13T21:34:53.935Z,18.67
2022-11-13T21:37:20.949Z,17.82
2022-11-13T21:39:48.091Z,18.78
2022-11-13T21:42:15.209Z,18.42
2022-11-13T21:44:42.308Z,17.75
2022-11-13T21:47:10.474Z,17.68
2022-11-13T21:49:39.009Z,17.80
2022-11-13T21:52:06.089Z,18.19
2022-11-13T21:54:33.207Z,18.15
2022-11-13T21:57:00.267Z,18.11
2022-11-13T21:59:27.307Z,18.96
2022-11-13T22:01:54.446Z,19.22
2022-11-13T22:04:21.527Z,19.41
2022-11-13T22:06:51.397Z,20.29
2022-11-13T22:09:20.527Z,19.84
2022-11-13T22:11:47.926Z,19.46
2022-11-13T22:14:15.091Z,17.68
2022-11-13T22:16:46.988Z,16.91
2022-11-13T22:19:15.927Z,17.21
2022-11-13T22:21:43.948Z,17.71
2022-11-13T22:24:14.813Z,18.48
2022-11-13T22:26:44.147Z,17.74
2022-11-13T22:29:11.706Z,17.45
2022-11-13T22:31:39.248Z,17.74
2022-11-13T22:34:06.946Z,17.81
2022-11-13T22:36:36.027Z,18.29
2022-11-13T22:39:04.649Z,17.81
2022-11-13T22:41:34.835Z,18.23
2022-11-13T22:44:04.647Z,18.27
2022-11-13T22:46:33.549Z,18.55
2022-11-13T22:49:02.013Z,18.02
2022-11-13T22:51:30.787Z,17.57
2022-11-13T22:54:00.547Z,18.17
2022-11-13T22:56:29.688Z,17.98
2022-11-13T22:59:00.286Z,17.55
2022-11-13T23:01:29.408Z,17.74
2022-11-13T23:03:59.646Z,17.32
2022-11-13T23:06:28.587Z,17.81
2022-11-13T23:08:55.866Z,17.37
2022-11-13T23:11:25.249Z,17.53
2022-11-13T23:13:54.487Z,17.14
2022-11-13T23:16:24.269Z,15.24
2022-11-13T23:18:53.626Z,15.11
2022-11-13T23:21:21.366Z,15.58
2022-11-13T23:23:48.868Z,16.08
2022-11-13T23:26:16.362Z,15.34
2022-11-13T23:28:43.448Z,15.63
2022-11-13T23:31:11.547Z,15.30
2022-11-13T23:33:40.428Z,14.64
2022-11-13T23:36:09.688Z,14.65
2022-11-13T23:38:36.888Z,14.28
2022-11-13T23:41:04.394Z,14.03
2022-11-13T23:44:02.120Z,14.22
2022-11-13T23:46:19.067Z,13.73
2022-11-13T23:48:47.590Z,13.23
2022-11-13T23:51:14.725Z,13.47
2022-11-13T23:53:41.706Z,12.77
2022-11-13T23:56:08.872Z,13.27
2022-11-13T23:58:36.097Z,13.28
